createdAt,value
2022-10-28T00:01:03.633Z,7.50
2022-10-28T00:03:31.375Z,6.23
2022-10-28T00:06:04.745Z,7.20
2022-10-28T00:08:32.867Z,12.60
2022-10-28T00:11:05.966Z,9.60
2022-10-28T00:13:34.092Z,6.83
2022-10-28T00:16:07.049Z,6.27
2022-10-28T00:18:34.830Z,9.50
2022-10-28T00:21:06.397Z,8.10
2022-10-28T00:23:34.387Z,9.07
2022-10-28T00:26:07.464Z,7.13
2022-10-28T00:28:35.295Z,8.87
2022-10-28T00:31:07.489Z,7.00
2022-10-28T00:33:35.415Z,4.30
2022-10-28T00:36:13.385Z,8.93
2022-10-28T00:38:42.040Z,5.40
2022-10-28T00:41:10.802Z,3.23
2022-10-28T00:43:41.143Z,6.57
2022-10-28T00:46:17.798Z,5.20
2022-10-28T00:48:48.644Z,4.37
2022-10-28T00:51:19.990Z,4.13
2022-10-28T00:53:49.158Z,5.40
2022-10-28T00:56:18.254Z,7.20
2022-10-28T00:58:49.036Z,4.50
2022-10-28T01:01:16.969Z,6.03
2022-10-28T01:03:44.782Z,3.57
2022-10-28T01:06:12.658Z,3.53
2022-10-28T01:08:41.720Z,9.37
2022-10-28T01:11:31.599Z,6.47
2022-10-28T01:14:20.223Z,4.03
2022-10-28T01:17:01.731Z,7.63
2022-10-28T01:19:57.888Z,6.07
2022-10-28T01:22:29.177Z,6.30
2022-10-28T01:25:27.930Z,5.50
2022-10-28T01:28:10.117Z,4.60
2022-10-28T01:30:57.350Z,7.43
2022-10-28T01:33:30.676Z,4.43
2022-10-28T01:36:06.119Z,4.43
2022-10-28T01:38:40.700Z,6.47
2022-10-28T01:41:13.013Z,11.33
2022-10-28T01:43:49.867Z,13.73
2022-10-28T01:46:26.737Z,4.33
2022-10-28T01:48:58.261Z,7.70
2022-10-28T01:51:30.326Z,3.93
2022-10-28T01:54:02.194Z,4.37
2022-10-28T01:56:34.016Z,5.23
2022-10-28T01:59:04.273Z,14.30
2022-10-28T02:01:35.112Z,7.37
2022-10-28T02:04:03.365Z,5.50
2022-10-28T02:06:34.720Z,3.93
2022-10-28T02:09:11.026Z,4.00
2022-10-28T02:11:54.878Z,4.40
2022-10-28T02:14:39.158Z,4.83
2022-10-28T02:17:14.630Z,4.47
2022-10-28T02:19:50.400Z,3.70
2022-10-28T02:22:23.572Z,6.77
2022-10-28T02:25:01.394Z,4.40
2022-10-28T02:27:35.070Z,4.30
2022-10-28T02:30:06.925Z,4.53
2022-10-28T02:32:41.009Z,6.10
2022-10-28T02:35:13.155Z,4.40
2022-10-28T02:37:42.613Z,5.27
2022-10-28T02:40:16.208Z,8.40
2022-10-28T02:42:48.369Z,3.70
2022-10-28T02:45:19.259Z,4.50
2022-10-28T02:47:56.103Z,3.73
2022-10-28T02:50:31.380Z,10.60
2022-10-28T02:53:03.556Z,6.03
2022-10-28T02:55:39.231Z,6.73
2022-10-28T02:58:07.563Z,3.90
2022-10-28T03:00:35.204Z,8.53
2022-10-28T03:03:05.054Z,4.50
2022-10-28T03:05:32.738Z,8.20
2022-10-28T03:08:00.380Z,6.70
2022-10-28T03:10:28.016Z,4.30
2022-10-28T03:12:55.756Z,8.27
2022-10-28T03:15:23.423Z,4.77
2022-10-28T03:17:51.452Z,6.07
2022-10-28T03:20:20.794Z,6.40
2022-10-28T03:22:48.460Z,6.20
2022-10-28T03:25:16.257Z,5.40
2022-10-28T03:27:44.000Z,7.70
2022-10-28T03:30:12.226Z,5.70
2022-10-28T03:32:42.739Z,6.10
2022-10-28T03:35:10.691Z,4.67
2022-10-28T03:37:42.428Z,7.40
2022-10-28T03:40:11.130Z,5.67
2022-10-28T03:42:40.416Z,5.80
2022-10-28T03:45:09.332Z,5.20
2022-10-28T03:47:37.433Z,8.17
2022-10-28T03:50:05.370Z,5.87
2022-10-28T03:52:33.000Z,5.70
2022-10-28T03:55:02.088Z,5.30
2022-10-28T03:57:31.418Z,8.30
2022-10-28T03:59:59.114Z,5.10
2022-10-28T04:02:27.605Z,7.67
2022-10-28T04:04:55.366Z,8.97
2022-10-28T04:07:23.774Z,5.53
2022-10-28T04:09:51.500Z,7.30
2022-10-28T04:12:20.518Z,4.07
2022-10-28T04:14:50.289Z,7.27
2022-10-28T04:17:18.393Z,13.73
2022-10-28T04:19:46.052Z,4.73
2022-10-28T04:22:13.752Z,8.13
2022-10-28T04:24:41.420Z,10.20
2022-10-28T04:27:09.119Z,6.00
2022-10-28T04:29:38.159Z,7.80
2022-10-28T04:32:05.886Z,6.60
2022-10-28T04:34:33.553Z,6.67
2022-10-28T04:37:01.226Z,7.47
2022-10-28T04:39:28.853Z,6.50
2022-10-28T04:41:56.493Z,15.33
2022-10-28T04:44:24.306Z,5.27
2022-10-28T04:46:53.316Z,5.20
2022-10-28T04:49:20.977Z,11.77
2022-10-28T04:51:48.638Z,5.17
2022-10-28T04:54:16.445Z,6.50
2022-10-28T04:56:44.124Z,5.90
2022-10-28T04:59:11.964Z,11.23
2022-10-28T05:01:39.794Z,5.30
2022-10-28T05:04:09.178Z,5.27
2022-10-28T05:06:36.817Z,7.73
2022-10-28T05:09:04.858Z,9.60
2022-10-28T05:11:32.523Z,9.03
2022-10-28T05:14:00.234Z,7.50
2022-10-28T05:16:27.872Z,5.53
2022-10-28T05:18:55.617Z,6.40
2022-10-28T05:21:24.656Z,10.13
2022-10-28T05:23:52.367Z,6.67
2022-10-28T05:26:20.493Z,8.30
2022-10-28T05:28:51.078Z,7.67
2022-10-28T05:31:18.923Z,7.30
2022-10-28T05:33:46.639Z,6.73
2022-10-28T05:36:14.343Z,8.07
2022-10-28T05:38:45.332Z,8.00
2022-10-28T05:41:13.046Z,12.20
2022-10-28T05:43:40.713Z,7.33
2022-10-28T05:46:08.373Z,10.90
2022-10-28T05:48:37.130Z,9.57
2022-10-28T05:51:05.022Z,9.13
2022-10-28T05:53:32.780Z,14.60
2022-10-28T05:56:01.794Z,7.23
2022-10-28T05:58:29.497Z,9.93
2022-10-28T06:00:57.140Z,10.00
2022-10-28T06:03:30.067Z,9.47
2022-10-28T06:05:59.594Z,6.83
2022-10-28T06:08:27.378Z,11.50
2022-10-28T06:10:54.430Z,6.77
2022-10-28T06:13:23.734Z,12.63
2022-10-28T06:15:51.925Z,8.60
2022-10-28T06:18:19.781Z,7.80
2022-10-28T06:20:52.574Z,8.60
2022-10-28T06:23:20.241Z,8.33
2022-10-28T06:25:47.927Z,5.53
2022-10-28T06:28:15.817Z,6.23
2022-10-28T06:30:44.794Z,9.30
2022-10-28T06:33:12.432Z,6.87
2022-10-28T06:35:40.091Z,8.80
2022-10-28T06:38:09.538Z,6.30
2022-10-28T06:40:37.471Z,9.87
2022-10-28T06:43:06.780Z,10.70
2022-10-28T06:45:35.122Z,15.83
2022-10-28T06:48:07.532Z,11.80
2022-10-28T06:50:36.132Z,9.03
2022-10-28T06:53:04.257Z,10.97
2022-10-28T06:55:32.173Z,9.53
2022-10-28T06:58:01.220Z,8.20
2022-10-28T07:03:02.675Z,9.07
2022-10-28T07:05:31.900Z,11.87
2022-10-28T07:07:59.619Z,13.03
2022-10-28T07:10:27.352Z,11.67
2022-10-28T07:12:55.350Z,14.73
2022-10-28T07:15:23.477Z,12.77
2022-10-28T07:17:53.775Z,9.97
2022-10-28T07:20:21.551Z,9.03
2022-10-28T07:22:56.916Z,9.60
2022-10-28T07:25:24.647Z,6.90
2022-10-28T07:27:52.705Z,5.23
2022-10-28T07:30:20.618Z,7.70
2022-10-28T07:32:48.323Z,10.90
2022-10-28T07:35:16.087Z,7.53
2022-10-28T07:37:43.784Z,11.53
2022-10-28T07:40:13.304Z,5.53
2022-10-28T07:42:40.960Z,10.03
2022-10-28T07:45:09.239Z,13.70
2022-10-28T07:47:36.900Z,13.10
2022-10-28T07:50:05.704Z,11.83
2022-10-28T07:52:33.854Z,13.40
2022-10-28T07:55:01.517Z,12.80
2022-10-28T07:57:30.691Z,7.27
2022-10-28T07:59:58.435Z,8.83
2022-10-28T08:02:26.703Z,6.90
2022-10-28T08:04:55.871Z,11.87
2022-10-28T08:07:23.916Z,5.60
2022-10-28T08:09:53.225Z,5.90
2022-10-28T08:12:21.020Z,10.47
2022-10-28T08:14:50.152Z,6.40
2022-10-28T08:17:17.934Z,10.90
2022-10-28T08:19:45.592Z,9.93
2022-10-28T08:22:13.252Z,9.10
2022-10-28T08:24:40.886Z,7.87
2022-10-28T08:27:08.585Z,6.63
2022-10-28T08:29:36.255Z,7.77
2022-10-28T08:32:05.361Z,4.30
2022-10-28T08:34:33.077Z,4.77
2022-10-28T08:37:00.763Z,5.07
2022-10-28T08:39:28.490Z,11.10
2022-10-28T08:42:03.891Z,7.90
2022-10-28T08:45:01.495Z,8.83
2022-10-28T08:47:39.490Z,8.67
2022-10-28T08:50:14.511Z,7.87
2022-10-28T08:52:46.901Z,6.77
2022-10-28T08:55:18.142Z,9.03
2022-10-28T08:57:50.198Z,9.57
2022-10-28T09:00:21.918Z,8.07
2022-10-28T09:03:00.268Z,7.20
2022-10-28T09:05:28.573Z,12.70
2022-10-28T09:07:57.391Z,11.83
2022-10-28T09:11:06.673Z,15.20
2022-10-28T09:13:47.033Z,9.20
2022-10-28T09:16:23.129Z,14.67
2022-10-28T09:18:54.623Z,7.23
2022-10-28T09:21:30.573Z,11.40
2022-10-28T09:24:00.831Z,19.30
2022-10-28T09:26:38.509Z,9.60
2022-10-28T09:29:20.562Z,12.90
2022-10-28T09:31:51.128Z,12.13
2022-10-28T09:34:31.899Z,10.70
2022-10-28T09:37:05.608Z,6.77
2022-10-28T09:39:42.555Z,10.20
2022-10-28T09:42:17.814Z,10.53
2022-10-28T09:44:50.475Z,4.93
2022-10-28T09:47:22.518Z,11.13
2022-10-28T09:49:55.512Z,7.33
2022-10-28T09:52:26.082Z,11.83
2022-10-28T09:54:56.133Z,10.37
2022-10-28T09:57:30.460Z,7.50
2022-10-28T09:59:58.580Z,8.10
2022-10-28T10:02:29.597Z,5.23
2022-10-28T10:05:00.418Z,3.50
2022-10-28T10:07:35.780Z,5.60
2022-10-28T10:10:07.773Z,3.23
2022-10-28T10:12:35.555Z,6.10
2022-10-28T10:15:06.987Z,4.90
2022-10-28T10:17:40.325Z,8.10
2022-10-28T10:20:11.715Z,3.10
2022-10-28T10:22:41.122Z,12.50
2022-10-28T10:25:25.201Z,2.40
2022-10-28T10:27:55.255Z,2.57
2022-10-28T10:30:26.728Z,5.90
2022-10-28T10:32:54.513Z,3.70
2022-10-28T10:35:25.950Z,2.43
2022-10-28T10:37:56.895Z,4.53
2022-10-28T10:40:27.400Z,2.70
2022-10-28T10:43:13.125Z,6.23
2022-10-28T10:45:41.780Z,4.10
2022-10-28T10:48:14.921Z,3.47
2022-10-28T10:50:46.790Z,1.97
2022-10-28T10:53:24.646Z,4.73
2022-10-28T10:55:58.665Z,2.00
2022-10-28T10:58:29.321Z,3.03
2022-10-28T11:01:00.643Z,1.83
2022-10-28T11:03:34.696Z,7.80
2022-10-28T11:06:23.933Z,4.50
2022-10-28T11:08:58.319Z,4.00
2022-10-28T11:11:34.352Z,2.57
2022-10-28T11:14:08.557Z,4.67
2022-10-28T11:16:48.710Z,3.00
2022-10-28T11:19:22.695Z,3.60
2022-10-28T11:22:10.183Z,3.97
2022-10-28T11:24:56.589Z,3.17
2022-10-28T11:27:35.294Z,2.33
2022-10-28T11:30:03.312Z,6.10
2022-10-28T11:32:50.138Z,2.80
2022-10-28T11:35:43.805Z,3.37
2022-10-28T11:38:23.680Z,3.83
2022-10-28T11:41:05.144Z,4.33
2022-10-28T11:43:39.666Z,3.47
2022-10-28T11:46:14.606Z,4.53
2022-10-28T11:48:58.198Z,3.87
2022-10-28T11:51:38.846Z,2.33
2022-10-28T11:54:32.397Z,3.40
2022-10-28T11:57:04.891Z,4.07
2022-10-28T12:00:02.134Z,4.70
2022-10-28T12:02:54.763Z,5.63
2022-10-28T12:05:29.210Z,5.43
2022-10-28T12:08:23.013Z,2.40
2022-10-28T12:11:04.815Z,2.87
2022-10-28T12:13:41.244Z,3.77
2022-10-28T12:16:17.448Z,3.93
2022-10-28T12:18:53.348Z,5.40
2022-10-28T12:21:29.083Z,5.13
2022-10-28T12:23:59.310Z,1.43
2022-10-28T12:26:39.527Z,3.20
2022-10-28T12:29:14.456Z,2.87
2022-10-28T12:31:46.399Z,4.20
2022-10-28T12:34:17.597Z,8.73
2022-10-28T12:36:53.493Z,3.90
2022-10-28T12:39:24.238Z,6.50
2022-10-28T12:41:59.855Z,6.37
2022-10-28T12:44:29.465Z,6.00
2022-10-28T12:47:06.235Z,4.93
2022-10-28T12:49:45.732Z,10.53
2022-10-28T12:52:28.329Z,4.13
2022-10-28T12:55:02.287Z,5.33
2022-10-28T12:57:34.118Z,12.13
2022-10-28T13:00:07.532Z,4.37
2022-10-28T13:02:41.648Z,3.23
2022-10-28T13:05:20.557Z,4.13
2022-10-28T13:08:04.363Z,3.40
2022-10-28T13:10:40.000Z,2.90
2022-10-28T13:13:22.194Z,5.20
2022-10-28T13:16:09.131Z,5.37
2022-10-28T13:18:59.269Z,4.07
2022-10-28T13:21:54.053Z,3.97
2022-10-28T13:24:30.234Z,4.80
2022-10-28T13:26:58.754Z,2.63
2022-10-28T13:29:31.043Z,7.53
2022-10-28T13:31:58.988Z,6.13
2022-10-28T13:34:33.470Z,5.37
2022-10-28T13:37:04.280Z,3.73
2022-10-28T13:39:44.918Z,6.43
2022-10-28T13:42:33.140Z,2.03
2022-10-28T13:45:03.548Z,5.00
2022-10-28T13:47:32.962Z,3.73
2022-10-28T13:50:23.307Z,5.17
2022-10-28T13:53:29.639Z,1.77
2022-10-28T13:55:58.792Z,1.63
2022-10-28T13:58:27.508Z,2.40
2022-10-28T14:00:56.649Z,4.40
2022-10-28T14:03:26.779Z,2.50
2022-10-28T14:05:57.336Z,1.87
2022-10-28T14:08:29.573Z,5.40
2022-10-28T14:11:04.129Z,4.13
2022-10-28T14:13:35.361Z,2.77
2022-10-28T14:16:24.688Z,3.23
2022-10-28T14:18:56.162Z,4.07
2022-10-28T14:21:24.944Z,8.03
2022-10-28T14:24:31.943Z,7.23
2022-10-28T14:27:41.579Z,4.03
2022-10-28T14:30:15.881Z,5.10
2022-10-28T14:32:52.075Z,4.37
2022-10-28T14:35:30.153Z,5.10
2022-10-28T14:38:19.100Z,3.93
2022-10-28T14:40:51.467Z,3.43
2022-10-28T14:43:59.005Z,4.77
2022-10-28T14:46:41.407Z,5.63
2022-10-28T14:49:20.100Z,3.53
2022-10-28T14:51:50.820Z,4.73
2022-10-28T14:54:24.521Z,2.77
2022-10-28T14:56:55.990Z,5.03
2022-10-28T14:59:26.879Z,5.33
2022-10-28T15:02:05.276Z,7.27
2022-10-28T15:04:34.363Z,6.07
2022-10-28T15:07:02.159Z,7.23
2022-10-28T15:09:31.487Z,4.30
2022-10-28T15:12:02.311Z,4.33
2022-10-28T15:14:36.710Z,6.90
2022-10-28T15:17:13.259Z,3.23
2022-10-28T15:19:43.242Z,9.50
2022-10-28T15:22:17.161Z,4.60
2022-10-28T15:24:57.511Z,3.63
2022-10-28T15:27:27.088Z,5.63
2022-10-28T15:29:55.808Z,8.77
2022-10-28T15:32:29.434Z,5.80
2022-10-28T15:34:59.057Z,7.00
2022-10-28T15:37:29.633Z,8.63
2022-10-28T15:40:22.012Z,6.40
2022-10-28T15:42:57.461Z,9.00
2022-10-28T15:45:27.082Z,3.90
2022-10-28T15:47:56.577Z,8.00
2022-10-28T15:50:32.032Z,5.43
2022-10-28T15:53:23.103Z,5.57
2022-10-28T15:56:10.296Z,6.13
2022-10-28T15:58:40.324Z,8.43
2022-10-28T16:01:11.206Z,4.30
2022-10-28T16:03:44.243Z,10.40
2022-10-28T16:06:26.759Z,9.27
2022-10-28T16:09:07.352Z,4.97
2022-10-28T16:11:39.305Z,11.30
2022-10-28T16:14:24.604Z,4.27
2022-10-28T16:16:56.901Z,7.93
2022-10-28T16:19:29.995Z,5.43
2022-10-28T16:21:59.111Z,8.13
2022-10-28T16:24:26.928Z,9.83
2022-10-28T16:26:54.760Z,6.93
2022-10-28T16:29:22.513Z,6.60
2022-10-28T16:31:52.504Z,7.83
2022-10-28T16:34:20.188Z,11.47
2022-10-28T16:36:47.849Z,9.30
2022-10-28T16:39:21.951Z,7.90
2022-10-28T16:41:58.595Z,6.83
2022-10-28T16:44:28.015Z,9.93
2022-10-28T16:46:58.685Z,7.40
2022-10-28T16:49:26.403Z,7.00
2022-10-28T16:52:06.881Z,11.10
2022-10-28T16:54:35.919Z,15.17
2022-10-28T16:57:03.806Z,10.83
2022-10-28T16:59:31.655Z,14.97
2022-10-28T17:01:59.599Z,10.73
2022-10-28T17:04:27.461Z,14.30
2022-10-28T17:06:55.161Z,16.13
2022-10-28T17:09:22.906Z,12.50
2022-10-28T17:11:53.971Z,12.90
2022-10-28T17:14:21.689Z,12.53
2022-10-28T17:16:49.408Z,18.93
2022-10-28T17:19:17.260Z,19.93
2022-10-28T17:21:44.960Z,13.80
2022-10-28T17:24:13.909Z,14.07
2022-10-28T17:26:43.865Z,13.43
2022-10-28T17:29:13.066Z,14.37
2022-10-28T17:31:40.815Z,14.40
2022-10-28T17:34:08.499Z,14.50
2022-10-28T17:36:36.144Z,11.03
2022-10-28T17:39:04.016Z,16.33
2022-10-28T17:41:31.736Z,12.87
2022-10-28T17:43:59.631Z,13.17
2022-10-28T17:46:28.692Z,16.17
2022-10-28T17:48:56.438Z,15.23
2022-10-28T17:51:26.220Z,12.10
2022-10-28T17:53:54.806Z,14.10
2022-10-28T17:56:22.671Z,10.83
2022-10-28T17:58:53.360Z,18.83
2022-10-28T18:01:21.404Z,11.50
2022-10-28T18:03:51.581Z,12.90
2022-10-28T18:06:19.241Z,12.23
2022-10-28T18:08:47.046Z,13.53
2022-10-28T18:11:16.761Z,11.17
2022-10-28T18:13:47.560Z,15.70
2022-10-28T18:16:17.228Z,13.43
2022-10-28T18:18:45.124Z,13.03
2022-10-28T18:21:15.023Z,21.37
2022-10-28T18:23:43.025Z,18.13
2022-10-28T18:26:12.662Z,19.63
2022-10-28T18:28:41.699Z,16.17
2022-10-28T18:31:12.209Z,14.00
2022-10-28T18:33:40.266Z,14.67
2022-10-28T18:36:11.203Z,16.63
2022-10-28T18:38:40.457Z,13.70
2022-10-28T18:41:11.605Z,11.50
2022-10-28T18:43:39.501Z,20.97
2022-10-28T18:46:07.722Z,11.00
2022-10-28T18:48:35.868Z,12.40
2022-10-28T18:51:06.618Z,16.10
2022-10-28T18:53:36.570Z,11.70
2022-10-28T18:56:07.452Z,10.63
2022-10-28T18:58:35.207Z,13.23
2022-10-28T19:01:08.071Z,10.60
2022-10-28T19:03:36.321Z,11.90
2022-10-28T19:06:05.857Z,13.23
2022-10-28T19:08:33.914Z,15.47
2022-10-28T19:11:02.752Z,15.30
2022-10-28T19:13:33.757Z,9.80
2022-10-28T19:16:01.598Z,13.83
2022-10-28T19:18:29.368Z,12.70
2022-10-28T19:21:04.130Z,13.50
2022-10-28T19:23:32.653Z,16.80
2022-10-28T19:26:01.174Z,14.97
2022-10-28T19:28:31.476Z,14.00
2022-10-28T19:31:03.687Z,20.17
2022-10-28T19:33:32.345Z,13.80
2022-10-28T19:36:05.036Z,18.40
2022-10-28T19:38:34.579Z,13.10
2022-10-28T19:41:03.576Z,16.17
2022-10-28T19:43:33.030Z,12.20
2022-10-28T19:46:10.198Z,13.13
2022-10-28T19:48:38.853Z,15.87
2022-10-28T19:51:07.337Z,11.93
2022-10-28T19:53:35.512Z,15.27
2022-10-28T19:56:04.942Z,16.87
2022-10-28T19:58:34.783Z,8.90
2022-10-28T20:01:04.319Z,12.77
2022-10-28T20:03:34.621Z,13.30
2022-10-28T20:06:06.587Z,17.97
2022-10-28T20:08:36.305Z,14.37
2022-10-28T20:11:05.878Z,12.90
2022-10-28T20:13:35.929Z,14.03
2022-10-28T20:16:05.513Z,12.53
2022-10-28T20:18:34.504Z,14.40
2022-10-28T20:21:06.668Z,15.43
2022-10-28T20:23:35.671Z,12.70
2022-10-28T20:26:05.477Z,14.87
2022-10-28T20:28:33.512Z,11.20
2022-10-28T20:31:04.373Z,9.67
2022-10-28T20:33:32.557Z,13.37
2022-10-28T20:36:00.572Z,11.50
2022-10-28T20:38:29.403Z,12.90
2022-10-28T20:40:58.660Z,13.30
2022-10-28T20:43:28.896Z,12.10
2022-10-28T20:45:58.681Z,20.03
2022-10-28T20:48:29.087Z,17.43
2022-10-28T20:50:58.368Z,16.40
2022-10-28T20:53:27.488Z,14.57
2022-10-28T20:55:56.543Z,29.60
2022-10-28T20:58:26.015Z,25.07
2022-10-28T21:00:54.040Z,25.37
2022-10-28T21:03:22.614Z,21.17
2022-10-28T21:05:51.610Z,12.03
2022-10-28T21:08:19.250Z,17.83
2022-10-28T21:10:46.947Z,18.57
2022-10-28T21:13:14.577Z,14.67
2022-10-28T21:15:44.897Z,21.20
2022-10-28T21:18:13.546Z,16.13
2022-10-28T21:20:41.471Z,18.20
2022-10-28T21:23:11.526Z,17.43
2022-10-28T21:25:39.902Z,12.40
2022-10-28T21:28:07.585Z,13.13
2022-10-28T21:30:35.217Z,14.57
2022-10-28T21:33:03.699Z,20.63
2022-10-28T21:35:31.347Z,16.40
2022-10-28T21:37:59.071Z,13.90
2022-10-28T21:40:28.159Z,13.03
2022-10-28T21:42:55.858Z,12.73
2022-10-28T21:45:24.174Z,16.53
2022-10-28T21:47:55.152Z,12.80
2022-10-28T21:50:23.068Z,15.30
2022-10-28T21:52:50.778Z,11.93
2022-10-28T21:55:20.845Z,13.90
2022-10-28T21:57:56.197Z,15.20
2022-10-28T22:00:24.145Z,15.37
2022-10-28T22:02:52.097Z,19.77
2022-10-28T22:05:19.858Z,12.80
2022-10-28T22:07:47.537Z,11.43
2022-10-28T22:10:15.225Z,10.73
2022-10-28T22:12:42.887Z,13.40
2022-10-28T22:15:12.037Z,17.33
2022-10-28T22:17:40.313Z,9.83
2022-10-28T22:20:09.753Z,14.43
2022-10-28T22:22:37.654Z,12.07
2022-10-28T22:25:09.349Z,12.30
2022-10-28T22:27:38.285Z,10.87
2022-10-28T22:30:06.551Z,12.93
2022-10-28T22:32:35.605Z,13.20
2022-10-28T22:35:03.412Z,13.23
2022-10-28T22:37:32.452Z,15.90
2022-10-28T22:40:00.099Z,13.57
2022-10-28T22:42:27.796Z,13.97
2022-10-28T22:44:55.435Z,17.63
2022-10-28T22:47:23.214Z,21.97
2022-10-28T22:49:52.347Z,12.90
2022-10-28T22:52:20.159Z,17.33
2022-10-28T22:54:47.870Z,14.70
2022-10-28T22:57:15.607Z,15.27
2022-10-28T22:59:43.319Z,10.73
2022-10-28T23:02:11.193Z,18.50
2022-10-28T23:04:39.022Z,10.60
2022-10-28T23:07:08.003Z,15.13
2022-10-28T23:09:35.726Z,12.90
2022-10-28T23:12:03.418Z,14.53
2022-10-28T23:14:31.127Z,10.80
2022-10-28T23:16:59.618Z,17.70
2022-10-28T23:19:27.327Z,13.97
2022-10-28T23:21:54.981Z,12.70
2022-10-28T23:24:24.097Z,10.37
2022-10-28T23:26:51.843Z,12.20
2022-10-28T23:29:19.510Z,12.87
2022-10-28T23:31:47.156Z,13.10
2022-10-28T23:34:14.791Z,8.90
2022-10-28T23:36:42.440Z,9.63
2022-10-28T23:39:10.245Z,11.90
2022-10-28T23:41:39.266Z,10.73
2022-10-28T23:44:06.932Z,11.17
2022-10-28T23:46:37.385Z,9.57
2022-10-28T23:49:05.486Z,11.83
2022-10-28T23:51:33.149Z,7.33
2022-10-28T23:54:00.986Z,11.90
2022-10-28T23:56:28.660Z,14.60
2022-10-28T23:58:57.762Z,12.43
